Time;durP1;ratioP1;P1;durP2;ratioP2;P2;SDS_P1;SDS_P2;PMS_P1;PMS_P2;Temp;Humidity;BMP_temperature;BMP_pressure;BME280_temperature;BME280_humidity;BME280_pressure;Samples;Min_cycle;Max_cycle;Signal;HPM_P1;HPM_P2
2022/10/22 00:02:15;;;;;;;10.88;5.90;;;;;;;6.26;77.10;99516.91;4995706;28;20108;-61
2022/10/22 00:04:40;;;;;;;10.65;6.05;;;;;;;6.26;77.47;99518.72;4995539;28;20053;-61
2022/10/22 00:07:06;;;;;;;9.02;6.15;;;;;;;6.26;77.26;99516.91;4995600;28;20054;-62
2022/10/22 00:09:32;;;;;;;11.35;6.15;;;;;;;6.27;77.54;99512.47;4994004;28;20042;-62
2022/10/22 00:11:57;;;;;;;10.70;6.32;;;;;;;6.26;77.26;99511.63;4995460;28;20046;-62
2022/10/22 00:14:23;;;;;;;12.60;6.55;;;;;;;6.28;77.12;99517.53;4977699;28;20542;-62
2022/10/22 00:16:49;;;;;;;10.75;6.70;;;;;;;6.27;77.71;99509.84;4995400;28;20050;-62
2022/10/22 00:19:14;;;;;;;11.13;6.22;;;;;;;6.28;77.84;99501.72;4993774;28;20149;-62
2022/10/22 00:21:40;;;;;;;10.35;6.78;;;;;;;6.26;77.34;99509.00;4995297;28;20050;-62
2022/10/22 00:24:06;;;;;;;16.10;9.27;;;;;;;6.11;78.07;99505.81;4993673;28;20062;-61
2022/10/22 00:26:31;;;;;;;14.52;8.43;;;;;;;6.11;77.98;99498.72;4993386;28;20043;-62
2022/10/22 00:28:57;;;;;;;12.05;7.03;;;;;;;6.15;77.88;99499.13;4994829;28;20049;-63
2022/10/22 00:31:23;;;;;;;11.70;7.78;;;;;;;6.18;78.11;99493.47;4977376;28;20042;-62
2022/10/22 00:33:48;;;;;;;10.20;5.90;;;;;;;6.23;77.61;99490.19;4994802;28;20048;-63
2022/10/22 00:36:15;;;;;;;10.02;6.68;;;;;;;6.20;77.54;99494.03;4993646;28;20539;-62
2022/10/22 00:38:40;;;;;;;13.13;7.28;;;;;;;6.23;77.44;99498.09;4994645;28;20420;-62
2022/10/22 00:41:06;;;;;;;11.60;6.65;;;;;;;6.21;77.82;99487.78;4993330;28;20076;-62
2022/10/22 00:43:32;;;;;;;10.98;6.28;;;;;;;6.24;77.47;99499.72;5003986;28;20077;-61
2022/10/22 00:45:57;;;;;;;10.77;7.13;;;;;;;6.20;77.38;99503.75;5013993;28;20041;-61
2022/10/22 00:48:28;;;;;;;10.32;6.78;;;;;;;6.19;77.93;99494.25;5014144;28;20048;-63
2022/10/22 00:51:03;;;;;;;12.40;6.72;;;;;;;6.20;77.70;99498.50;5012808;28;20459;-61
2022/10/22 00:53:35;;;;;;;10.57;6.55;;;;;;;6.20;77.44;99501.13;4979532;28;20087;-63
2022/10/22 00:56:01;;;;;;;12.82;6.70;;;;;;;6.19;77.38;99505.59;5012560;28;20132;-62
2022/10/22 00:58:28;;;;;;;13.70;8.75;;;;;;;6.18;78.02;99508.41;5029118;28;20064;-61
2022/10/22 01:00:55;;;;;;;11.52;7.03;;;;;;;6.20;78.00;99499.31;5012625;28;20538;-62
2022/10/22 01:03:21;;;;;;;11.75;5.88;;;;;;;6.24;77.36;99499.72;5029350;28;20069;-62
2022/10/22 01:05:56;;;;;;;12.45;6.95;;;;;;;6.17;78.30;99502.34;5028928;28;20129;-65
2022/10/22 01:08:46;;;;;;;11.13;6.65;;;;;;;6.14;78.57;99503.56;5013990;28;20115;-62
2022/10/22 01:11:24;;;;;;;10.43;6.37;;;;;;;6.12;78.62;99496.91;5012411;28;20058;-61
2022/10/22 01:13:55;;;;;;;12.43;7.03;;;;;;;6.10;78.60;99499.75;5013605;28;20304;-62
2022/10/22 01:16:56;;;;;;;11.55;7.03;;;;;;;6.12;78.79;99500.34;5023664;28;20082;-61
2022/10/22 01:20:04;;;;;;;10.73;6.65;;;;;;;6.12;78.87;99499.56;4990726;28;20068;-61
2022/10/22 01:22:34;;;;;;;14.18;7.65;;;;;;;6.14;79.23;99494.88;4975914;28;20069;-62
2022/10/22 01:25:17;;;;;;;12.75;7.00;;;;;;;6.17;79.00;99499.72;4993253;28;20428;-62
2022/10/22 01:28:04;;;;;;;11.80;7.40;;;;;;;6.20;78.52;99496.69;4974497;28;20053;-61
2022/10/22 01:30:30;;;;;;;10.27;6.88;;;;;;;6.10;79.24;99502.38;4974333;28;20452;-62
2022/10/22 01:33:02;;;;;;;13.07;7.32;;;;;;;6.17;78.89;99496.28;4972974;28;20043;-62
2022/10/22 01:35:31;;;;;;;13.13;7.68;;;;;;;6.19;78.61;99487.16;4972956;28;20061;-62
2022/10/22 01:37:59;;;;;;;11.10;7.07;;;;;;;6.27;78.68;99497.47;4973256;28;20411;-61
2022/10/22 01:40:26;;;;;;;14.90;8.25;;;;;;;6.28;78.65;99495.66;4972925;28;20522;-61
2022/10/22 01:43:00;;;;;;;13.50;7.60;;;;;;;6.33;78.46;99495.84;4974041;28;20042;-61
2022/10/22 01:45:28;;;;;;;12.43;7.88;;;;;;;6.35;78.71;99488.53;4974044;28;20042;-62
2022/10/22 01:48:00;;;;;;;13.13;7.07;;;;;;;6.33;78.29;99488.75;4973965;28;20047;-62
2022/10/22 01:50:41;;;;;;;12.38;7.43;;;;;;;6.36;78.56;99493.59;4956841;28;20034;-62
2022/10/22 01:53:29;;;;;;;13.57;8.05;;;;;;;6.37;78.26;99499.69;4974188;28;20038;-62
2022/10/22 01:56:10;;;;;;;14.50;7.72;;;;;;;6.36;78.70;99498.06;4988864;28;20061;-62
2022/10/22 01:58:41;;;;;;;14.45;7.85;;;;;;;6.32;78.80;99500.31;4972390;28;20078;-64
2022/10/22 02:01:22;;;;;;;14.52;7.88;;;;;;;6.28;78.56;99509.63;4988811;28;20050;-62
2022/10/22 02:04:00;;;;;;;15.73;8.10;;;;;;;6.32;78.61;99505.59;4973968;28;20039;-61
2022/10/22 02:06:27;;;;;;;15.18;8.27;;;;;;;6.37;78.35;99507.56;4987657;28;20050;-61
2022/10/22 02:08:53;;;;;;;14.93;7.18;;;;;;;6.41;78.70;99503.50;4972668;28;20444;-61
2022/10/22 02:11:19;;;;;;;15.02;7.68;;;;;;;6.47;78.42;99507.97;4973697;28;20057;-60
2022/10/22 02:13:51;;;;;;;15.30;7.57;;;;;;;6.48;77.87;99512.22;4973663;28;20042;-61
2022/10/22 02:16:33;;;;;;;12.73;7.75;;;;;;;6.50;78.20;99512.81;4973886;28;20469;-62
2022/10/22 02:19:02;;;;;;;13.95;7.38;;;;;;;6.51;78.35;99518.88;4973243;28;20038;-61
2022/10/22 02:21:28;;;;;;;13.75;7.22;;;;;;;6.53;77.71;99514.19;4972025;28;20134;-63
2022/10/22 02:23:54;;;;;;;12.90;6.55;;;;;;;6.48;77.72;99511.41;4973531;28;20050;-62
2022/10/22 02:26:29;;;;;;;15.82;8.98;;;;;;;6.49;77.93;99515.66;4988420;28;20050;-62
2022/10/22 02:29:04;;;;;;;17.58;9.60;;;;;;;6.43;78.38;99522.53;4972311;28;20416;-62
2022/10/22 02:31:33;;;;;;;12.10;6.38;;;;;;;6.41;78.69;99519.31;4988288;28;20054;-62
2022/10/22 02:34:03;;;;;;;11.13;6.25;;;;;;;6.45;77.91;99515.25;4972180;28;20527;-63
2022/10/22 02:36:30;;;;;;;25.38;11.18;;;;;;;6.47;78.20;99518.50;4972074;28;20465;-61
2022/10/22 02:38:55;;;;;;;12.32;7.40;;;;;;;6.48;78.11;99520.09;4971838;28;20548;-62
2022/10/22 02:41:21;;;;;;;12.93;6.65;;;;;;;6.43;78.04;99522.53;4971806;28;20131;-61
2022/10/22 02:43:54;;;;;;;13.43;7.65;;;;;;;6.42;78.32;99528.03;4971667;28;20043;-62
2022/10/22 02:46:20;;;;;;;14.52;6.25;;;;;;;6.43;77.92;99533.06;4973325;28;20050;-62
2022/10/22 02:48:46;;;;;;;11.10;5.97;;;;;;;6.42;78.35;99515.66;4973079;28;20043;-61
2022/10/22 02:51:12;;;;;;;11.00;6.50;;;;;;;6.48;78.33;99541.19;4973014;28;20058;-63
2022/10/22 02:53:37;;;;;;;11.20;6.05;;;;;;;6.53;78.11;99528.22;4972834;28;20081;-62
2022/10/22 02:56:04;;;;;;;13.02;6.78;;;;;;;6.55;78.57;99528.78;4971586;28;20047;-63
2022/10/22 02:58:29;;;;;;;13.23;6.20;;;;;;;6.56;77.93;99532.25;4972769;28;20067;-60
2022/10/22 03:00:55;;;;;;;11.95;6.75;;;;;;;6.57;78.47;99531.22;4972932;28;20051;-62
2022/10/22 03:03:20;;;;;;;13.13;6.60;;;;;;;6.56;77.99;99527.78;4972901;28;20508;-63
2022/10/22 03:05:46;;;;;;;12.05;6.75;;;;;;;6.56;78.27;99527.78;4973027;28;20043;-62
2022/10/22 03:08:12;;;;;;;10.23;6.10;;;;;;;6.59;78.00;99527.38;4971916;28;20047;-62
2022/10/22 03:10:38;;;;;;;11.23;6.15;;;;;;;6.48;78.73;99525.38;4972787;28;20049;-63
2022/10/22 03:13:03;;;;;;;11.30;6.78;;;;;;;6.53;78.65;99532.63;4971419;28;20133;-64
2022/10/22 03:15:29;;;;;;;11.75;6.10;;;;;;;6.51;78.59;99529.41;4972717;28;20050;-62
2022/10/22 03:17:55;;;;;;;9.40;5.70;;;;;;;6.57;78.95;99529.41;4972633;28;20126;-62
2022/10/22 03:20:20;;;;;;;12.73;6.47;;;;;;;6.59;78.48;99522.09;4971270;28;20081;-62
2022/10/22 03:22:46;;;;;;;9.45;5.95;;;;;;;6.65;78.43;99525.72;4987592;28;20086;-62
2022/10/22 03:25:18;;;;;;;10.32;6.07;;;;;;;6.54;78.94;99521.91;4971489;28;20047;-62
2022/10/22 03:27:44;;;;;;;9.90;6.05;;;;;;;6.60;78.97;99526.34;4987589;28;20043;-62
2022/10/22 03:30:10;;;;;;;12.85;6.38;;;;;;;6.53;79.23;99537.91;4972508;28;20158;-62
2022/10/22 03:32:36;;;;;;;9.77;6.05;;;;;;;6.55;79.06;99530.63;4987503;28;20126;-62
2022/10/22 03:35:02;;;;;;;9.80;6.30;;;;;;;6.52;80.16;99534.47;4972672;28;20479;-62
2022/10/22 03:37:29;;;;;;;11.52;6.18;;;;;;;6.51;81.81;99524.16;4972464;28;20126;-62
2022/10/22 03:39:54;;;;;;;12.52;7.03;;;;;;;6.42;80.70;99523.56;4987670;28;20053;-63
2022/10/22 03:42:20;;;;;;;9.65;5.63;;;;;;;6.40;82.28;99520.31;4972803;28;20047;-62
2022/10/22 03:44:46;;;;;;;10.70;6.60;;;;;;;6.42;82.51;99533.31;4972647;28;20526;-62
2022/10/22 03:47:12;;;;;;;9.27;5.97;;;;;;;6.45;82.29;99538.97;5005506;28;20530;-62
2022/10/22 03:49:37;;;;;;;10.98;5.80;;;;;;;6.50;81.94;99531.25;5011501;28;20038;-63
2022/10/22 03:52:08;;;;;;;10.00;5.82;;;;;;;6.50;81.81;99531.25;5011219;28;20494;-63
2022/10/22 03:54:34;;;;;;;12.48;6.05;;;;;;;6.54;81.49;99531.63;5011558;28;20130;-62
2022/10/22 03:57:00;;;;;;;14.98;7.78;;;;;;;6.55;81.80;99534.06;5009880;28;20098;-62
2022/10/22 03:59:26;;;;;;;12.85;6.95;;;;;;;6.60;81.48;99525.53;5011461;28;20480;-62
2022/10/22 04:01:51;;;;;;;10.40;5.82;;;;;;;6.64;81.32;99526.72;4993687;28;20049;-61
2022/10/22 04:04:17;;;;;;;9.23;5.55;;;;;;;6.68;80.91;99530.59;5010029;28;20034;-63
2022/10/22 04:06:42;;;;;;;9.18;5.43;;;;;;;6.68;80.71;99524.50;5011193;28;20050;-63
2022/10/22 04:09:08;;;;;;;8.15;5.32;;;;;;;6.72;80.77;99530.97;5011418;28;20471;-64
2022/10/22 04:11:34;;;;;;;10.77;6.68;;;;;;;6.69;79.90;99532.19;5011428;28;20395;-61
2022/10/22 04:13:59;;;;;;;9.82;5.97;;;;;;;6.68;79.99;99524.50;5011155;28;20053;-62
2022/10/22 04:16:29;;;;;;;10.57;6.07;;;;;;;6.59;79.70;99529.19;5011303;28;20140;-63
2022/10/22 04:18:55;;;;;;;10.43;6.25;;;;;;;6.62;80.31;99527.94;5011034;28;20107;-63
2022/10/22 04:21:21;;;;;;;17.88;9.40;;;;;;;6.62;79.59;99533.22;5009751;28;20496;-62
2022/10/22 04:23:50;;;;;;;10.68;5.95;;;;;;;6.63;79.95;99529.59;5011077;28;20038;-61
2022/10/22 04:26:16;;;;;;;10.20;6.00;;;;;;;6.65;79.74;99531.00;5009645;28;20100;-62
2022/10/22 04:28:42;;;;;;;11.60;6.47;;;;;;;6.65;79.77;99528.38;5011095;28;20048;-63
2022/10/22 04:31:13;;;;;;;10.57;6.60;;;;;;;6.68;79.88;99529.78;5014614;28;20419;-63
2022/10/22 04:33:39;;;;;;;11.15;6.30;;;;;;;6.65;79.81;99531.00;5013290;28;20537;-63
2022/10/22 04:36:12;;;;;;;12.43;6.07;;;;;;;6.70;79.36;99538.25;5014494;28;20049;-62
2022/10/22 04:38:38;;;;;;;10.68;6.47;;;;;;;6.74;79.74;99535.03;5014345;28;20052;-62
2022/10/22 04:41:13;;;;;;;13.18;7.13;;;;;;;6.77;79.69;99531.16;5013200;28;20046;-62
2022/10/22 04:43:39;;;;;;;12.38;6.50;;;;;;;6.76;79.07;99537.44;5014272;28;20042;-62
2022/10/22 04:46:07;;;;;;;10.50;6.43;;;;;;;6.77;79.09;99539.06;5012929;28;20511;-62
2022/10/22 04:48:35;;;;;;;9.45;5.97;;;;;;;6.78;79.11;99530.94;5013990;28;20175;-62
2022/10/22 04:51:01;;;;;;;11.55;6.53;;;;;;;6.81;78.95;99532.34;5014404;28;20049;-62
2022/10/22 04:53:26;;;;;;;13.45;8.55;;;;;;;6.85;78.98;99533.53;5014088;28;20416;-65
2022/10/22 04:55:52;;;;;;;12.20;7.63;;;;;;;6.85;78.56;99535.38;5014300;28;20157;-62
2022/10/22 04:58:18;;;;;;;9.77;6.38;;;;;;;6.89;78.54;99536.59;5013930;28;20057;-63
2022/10/22 05:00:44;;;;;;;9.18;5.43;;;;;;;6.93;78.21;99538.56;4996349;28;20056;-63
2022/10/22 05:03:09;;;;;;;9.75;5.78;;;;;;;6.92;78.05;99536.16;5029338;28;20119;-63
2022/10/22 05:05:35;;;;;;;11.68;6.72;;;;;;;6.92;78.95;99536.16;5014035;28;20133;-62
2022/10/22 05:08:01;;;;;;;13.35;7.15;;;;;;;6.94;78.44;99542.84;5013907;28;20034;-64
2022/10/22 05:10:27;;;;;;;10.73;6.65;;;;;;;6.97;78.76;99536.31;5013660;28;20415;-62
2022/10/22 05:12:52;;;;;;;10.60;5.68;;;;;;;6.97;78.07;99546.88;5012441;28;20069;-61
2022/10/22 05:15:18;;;;;;;9.80;6.35;;;;;;;6.95;78.48;99535.75;5013907;28;20196;-63
2022/10/22 05:17:44;;;;;;;11.10;6.70;;;;;;;6.99;78.33;99542.19;5013694;28;20457;-63
2022/10/22 05:20:09;;;;;;;9.32;5.43;;;;;;;6.95;77.98;99538.38;5013504;28;20054;-62
2022/10/22 05:22:35;;;;;;;9.93;5.82;;;;;;;6.99;79.05;99544.84;5013913;28;20045;-62
2022/10/22 05:25:01;;;;;;;12.30;7.30;;;;;;;7.01;78.75;99546.25;5013734;28;20041;-62
2022/10/22 05:27:29;;;;;;;11.75;6.50;;;;;;;7.04;78.36;99553.72;4996407;28;20053;-62
2022/10/22 05:29:54;;;;;;;9.38;5.78;;;;;;;7.04;78.54;99543.19;5013519;28;20242;-64
2022/10/22 05:32:20;;;;;;;7.78;4.95;;;;;;;7.12;78.36;99555.34;5028751;28;20058;-62
2022/10/22 05:34:45;;;;;;;9.55;5.60;;;;;;;7.17;77.96;99549.41;5013360;28;20418;-62
2022/10/22 05:37:11;;;;;;;8.80;5.53;;;;;;;7.19;77.29;99558.72;5013720;28;20496;-62
2022/10/22 05:39:39;;;;;;;8.73;5.55;;;;;;;7.24;77.38;99558.91;5011795;28;20056;-64
2022/10/22 05:42:05;;;;;;;10.20;5.88;;;;;;;7.24;77.62;99560.75;5012086;28;20045;-62
2022/10/22 05:44:30;;;;;;;8.60;5.47;;;;;;;7.30;77.41;99561.72;5011916;28;20038;-62
2022/10/22 05:46:56;;;;;;;9.00;5.30;;;;;;;7.33;76.85;99558.66;5011794;28;20444;-62
2022/10/22 05:49:22;;;;;;;8.90;6.13;;;;;;;7.36;77.06;99564.31;5013037;28;20096;-64
2022/10/22 05:51:47;;;;;;;8.52;5.65;;;;;;;7.35;77.30;99553.97;5013285;28;20046;-63
2022/10/22 05:54:18;;;;;;;7.68;5.25;;;;;;;7.36;76.67;99568.78;5011717;28;20037;-62
2022/10/22 05:56:44;;;;;;;8.05;4.90;;;;;;;7.38;76.89;99572.84;5011573;28;20054;-62
2022/10/22 05:59:10;;;;;;;8.73;5.25;;;;;;;7.39;77.04;99556.00;5013107;28;20050;-63
2022/10/22 06:01:38;;;;;;;8.32;5.38;;;;;;;7.40;76.88;99565.50;5001605;28;20046;-63
2022/10/22 06:04:06;;;;;;;8.48;5.65;;;;;;;7.42;76.78;99563.47;4993086;28;20450;-63
2022/10/22 06:06:36;;;;;;;10.55;5.60;;;;;;;7.43;76.14;99562.44;4993243;28;20043;-62
2022/10/22 06:09:13;;;;;;;13.68;8.77;;;;;;;7.42;76.39;99566.13;4993135;28;20050;-64
2022/10/22 06:11:40;;;;;;;10.20;7.03;;;;;;;7.46;75.81;99563.84;4991931;28;20038;-63
2022/10/22 06:14:05;;;;;;;10.25;6.28;;;;;;;7.43;75.54;99566.91;4992026;28;20358;-64
2022/10/22 06:16:31;;;;;;;9.65;5.80;;;;;;;7.42;76.33;99565.31;4993267;28;20408;-64
2022/10/22 06:19:03;;;;;;;7.40;5.30;;;;;;;7.49;76.29;99568.69;4992866;28;20077;-64
2022/10/22 06:21:29;;;;;;;9.50;5.55;;;;;;;7.49;76.03;99573.97;4993054;28;20050;-62
2022/10/22 06:23:56;;;;;;;13.02;8.65;;;;;;;7.48;75.49;99567.91;4992778;28;20072;-63
2022/10/22 06:26:22;;;;;;;6.72;5.38;;;;;;;7.51;75.43;99564.84;4992830;28;20054;-62
2022/10/22 06:28:48;;;;;;;8.60;5.60;;;;;;;7.60;75.21;99572.50;4992382;28;20437;-66
2022/10/22 06:31:13;;;;;;;7.38;4.68;;;;;;;7.71;75.12;99574.47;4992447;28;20121;-63
2022/10/22 06:33:42;;;;;;;7.78;5.05;;;;;;;7.76;74.26;99571.97;4990838;28;20034;-63
2022/10/22 06:36:10;;;;;;;8.00;4.57;;;;;;;7.82;73.85;99573.75;4991193;28;20042;-63
2022/10/22 06:38:37;;;;;;;5.50;4.05;;;;;;;7.84;73.72;99573.53;4992865;28;20038;-65
2022/10/22 06:41:05;;;;;;;6.97;4.22;;;;;;;7.90;73.59;99577.97;4992650;28;20096;-64
2022/10/22 06:43:31;;;;;;;6.03;4.35;;;;;;;7.93;72.55;99578.34;4991195;28;20540;-64
2022/10/22 06:46:04;;;;;;;8.40;4.22;;;;;;;7.95;72.44;99571.00;4992389;28;20085;-63
2022/10/22 06:48:30;;;;;;;5.88;4.20;;;;;;;7.94;73.07;99581.78;4974965;28;20057;-61
2022/10/22 06:51:00;;;;;;;5.53;3.97;;;;;;;7.86;73.13;99580.22;4991776;28;20054;-63
2022/10/22 06:53:26;;;;;;;7.43;4.70;;;;;;;7.85;73.09;99585.69;4992197;28;20093;-63
2022/10/22 06:55:52;;;;;;;6.68;4.75;;;;;;;7.93;72.40;99573.06;4973646;28;20106;-63
2022/10/22 06:58:17;;;;;;;8.30;4.88;;;;;;;7.91;72.91;99576.94;4990377;28;20108;-62
2022/10/22 07:00:43;;;;;;;7.35;3.80;;;;;;;7.90;72.60;99584.03;4990666;28;20074;-62
2022/10/22 07:03:13;;;;;;;7.03;4.78;;;;;;;7.89;72.06;99576.34;4991041;28;20038;-64
2022/10/22 07:05:39;;;;;;;7.90;4.80;;;;;;;7.89;72.26;99587.72;4991188;28;20420;-63
2022/10/22 07:08:05;;;;;;;10.27;6.30;;;;;;;7.91;72.80;99584.84;4990836;28;20050;-63
2022/10/22 07:10:31;;;;;;;6.70;4.65;;;;;;;7.93;72.04;99580.16;4992254;28;20053;-64
2022/10/22 07:12:57;;;;;;;8.23;4.68;;;;;;;7.96;72.65;99585.81;5008680;28;20665;-63
2022/10/22 07:15:23;;;;;;;7.55;4.55;;;;;;;7.96;72.62;99593.75;4992346;28;20050;-64
2022/10/22 07:17:50;;;;;;;7.25;4.90;;;;;;;7.84;73.15;99586.75;4992116;28;20038;-66
2022/10/22 07:20:17;;;;;;;8.02;5.25;;;;;;;7.79;73.11;99591.84;5005183;28;20053;-64
2022/10/22 07:22:44;;;;;;;5.85;4.07;;;;;;;7.84;73.09;99589.38;4994191;28;20041;-63
2022/10/22 07:25:10;;;;;;;5.82;4.38;;;;;;;7.72;72.75;99597.19;4994126;28;20545;-66
2022/10/22 07:27:36;;;;;;;5.82;4.20;;;;;;;7.74;72.99;99589.84;4995904;28;20042;-65
2022/10/22 07:30:02;;;;;;;5.60;3.90;;;;;;;7.76;72.81;99592.28;4991980;28;20038;-63
2022/10/22 07:32:29;;;;;;;5.00;3.80;;;;;;;7.86;72.24;99582.88;4990610;28;20452;-62
2022/10/22 07:34:54;;;;;;;4.28;3.50;;;;;;;7.92;71.82;99597.03;4991991;28;20097;-64
2022/10/22 07:37:20;;;;;;;5.50;3.92;;;;;;;8.00;71.94;99602.06;4992214;28;20050;-63
2022/10/22 07:39:49;;;;;;;7.25;4.07;;;;;;;8.02;72.42;99584.16;4992191;28;20105;-63
2022/10/22 07:42:14;;;;;;;6.05;4.13;;;;;;;8.14;71.92;99600.09;4992160;28;20118;-62
2022/10/22 07:44:40;;;;;;;5.80;3.95;;;;;;;8.14;71.95;99592.19;4992041;28;20050;-63
2022/10/22 07:47:06;;;;;;;6.03;4.25;;;;;;;8.20;71.74;99586.84;4990574;28;20423;-62
2022/10/22 07:49:32;;;;;;;6.05;4.60;;;;;;;8.22;71.73;99599.84;4990543;28;20046;-65
2022/10/22 07:51:57;;;;;;;8.07;4.75;;;;;;;8.28;71.99;99600.81;4990531;28;20415;-63
2022/10/22 07:54:23;;;;;;;6.72;4.47;;;;;;;8.28;71.52;99601.59;4990593;28;20050;-63
2022/10/22 07:56:49;;;;;;;6.38;4.43;;;;;;;8.16;71.98;99598.88;4991705;28;20066;-63
2022/10/22 07:59:14;;;;;;;6.70;4.45;;;;;;;8.20;71.99;99596.59;4991844;28;20046;-62
2022/10/22 08:01:40;;;;;;;7.05;4.15;;;;;;;8.27;70.99;99599.19;4990473;28;20043;-64
2022/10/22 08:04:08;;;;;;;6.72;4.80;;;;;;;8.30;71.29;99596.94;4993276;28;20129;-63
2022/10/22 08:06:35;;;;;;;7.10;4.93;;;;;;;8.31;71.08;99597.72;4995639;28;20054;-63
2022/10/22 08:09:00;;;;;;;5.68;4.47;;;;;;;8.29;71.33;99594.47;4995317;28;20189;-63
2022/10/22 08:11:26;;;;;;;6.80;4.50;;;;;;;8.18;71.27;99596.81;4995389;28;20097;-64
2022/10/22 08:13:52;;;;;;;7.43;4.38;;;;;;;8.26;71.14;99601.00;4978146;28;20068;-64
2022/10/22 08:16:18;;;;;;;5.35;4.50;;;;;;;8.27;71.46;99591.28;4993961;28;20054;-62
2022/10/22 08:18:43;;;;;;;5.40;3.88;;;;;;;8.35;70.93;99598.91;4995414;28;20042;-64
2022/10/22 08:21:14;;;;;;;6.70;4.75;;;;;;;8.44;71.26;99604.75;4995342;28;20436;-63
2022/10/22 08:23:39;;;;;;;6.40;4.75;;;;;;;8.47;70.68;99606.94;4994190;28;20042;-63
2022/10/22 08:26:05;;;;;;;7.78;5.10;;;;;;;8.51;71.45;99608.94;4995138;28;20050;-63
2022/10/22 08:28:35;;;;;;;7.03;4.63;;;;;;;8.52;69.79;99609.75;4995305;28;20046;-62
2022/10/22 08:31:03;;;;;;;6.82;5.07;;;;;;;8.39;71.27;99603.56;4993742;28;20050;-63
2022/10/22 08:33:29;;;;;;;6.70;4.80;;;;;;;8.36;71.43;99608.47;4995191;28;20401;-62
2022/10/22 08:35:55;;;;;;;7.20;5.28;;;;;;;8.32;71.82;99607.25;4993729;28;20100;-63
2022/10/22 08:38:21;;;;;;;8.38;5.18;;;;;;;8.41;71.08;99612.09;4993465;28;20478;-62
2022/10/22 08:40:53;;;;;;;8.95;5.50;;;;;;;8.48;71.26;99614.66;4994458;28;20046;-62
2022/10/22 08:43:51;;;;;;;7.28;4.93;;;;;;;8.57;70.24;99608.06;4994908;28;20034;-62
2022/10/22 08:46:51;;;;;;;6.53;4.03;;;;;;;8.65;69.32;99604.34;4993397;28;20050;-62
2022/10/22 08:49:38;;;;;;;9.10;4.43;;;;;;;8.51;69.76;99605.50;4993337;28;20054;-63
2022/10/22 08:52:04;;;;;;;6.75;4.22;;;;;;;8.46;70.23;99605.34;4993510;28;20051;-63
2022/10/22 08:54:37;;;;;;;7.53;4.10;;;;;;;8.52;69.43;99607.09;4993623;28;20050;-63
2022/10/22 08:57:21;;;;;;;6.47;4.60;;;;;;;8.62;69.21;99610.06;4993018;28;20070;-63
2022/10/22 09:00:03;;;;;;;6.38;4.50;;;;;;;8.64;69.72;99611.44;4994313;28;20050;-63
2022/10/22 09:03:07;;;;;;;9.20;4.78;;;;;;;8.57;70.47;99607.28;4994715;28;20516;-62
2022/10/22 09:05:59;;;;;;;6.10;4.25;;;;;;;8.66;69.79;99602.50;4994440;28;20055;-61
2022/10/22 09:08:25;;;;;;;8.02;4.82;;;;;;;8.75;69.53;99593.25;4994398;28;20042;-63
2022/10/22 09:10:55;;;;;;;8.48;5.07;;;;;;;8.85;68.85;99599.66;4993136;28;20050;-62
2022/10/22 09:13:21;;;;;;;5.85;4.70;;;;;;;8.92;69.03;99591.66;4992974;28;20062;-61
2022/10/22 09:15:56;;;;;;;4.32;3.53;;;;;;;8.95;67.99;99595.69;4992440;28;20055;-62
2022/10/22 09:18:43;;;;;;;5.43;3.92;;;;;;;9.07;67.00;99596.56;4994406;28;20031;-62
2022/10/22 09:21:41;;;;;;;5.63;4.20;;;;;;;9.15;67.10;99590.97;4992916;28;20119;-63
2022/10/22 09:24:32;;;;;;;5.68;3.80;;;;;;;9.22;66.60;99594.31;4993972;28;20038;-62
2022/10/22 09:26:58;;;;;;;5.53;3.70;;;;;;;9.25;66.26;99593.88;4992748;28;20133;-63
2022/10/22 09:29:31;;;;;;;7.60;4.90;;;;;;;9.21;66.73;99590.06;4992524;28;20468;-63
2022/10/22 09:31:56;;;;;;;5.82;4.40;;;;;;;9.24;65.75;99592.28;4994327;28;20078;-61
2022/10/22 09:34:22;;;;;;;7.07;3.90;;;;;;;9.13;66.39;99593.00;4993827;28;20133;-62
2022/10/22 09:37:00;;;;;;;4.85;3.55;;;;;;;9.07;65.97;99600.00;4994156;28;20085;-61
2022/10/22 09:39:31;;;;;;;4.18;3.60;;;;;;;8.98;66.69;99596.03;4993960;28;20093;-62
2022/10/22 09:41:57;;;;;;;5.32;3.70;;;;;;;9.02;66.97;99593.75;4993968;28;20053;-63
2022/10/22 09:44:23;;;;;;;4.88;3.78;;;;;;;9.09;66.44;99592.66;4992578;28;20042;-62
2022/10/22 09:46:48;;;;;;;4.80;4.00;;;;;;;9.22;65.82;99593.50;4993547;28;20531;-63
2022/10/22 09:49:16;;;;;;;5.18;4.00;;;;;;;9.28;65.71;99588.13;4993541;28;20053;-62
2022/10/22 09:51:58;;;;;;;7.30;4.63;;;;;;;9.35;66.54;99590.69;4976034;28;20471;-63
2022/10/22 09:54:44;;;;;;;6.78;4.28;;;;;;;9.26;66.24;99590.19;4993469;28;20043;-62
2022/10/22 09:57:12;;;;;;;7.20;4.85;;;;;;;9.19;66.14;99584.19;4991709;28;20096;-62
2022/10/22 09:59:40;;;;;;;10.23;6.22;;;;;;;9.13;66.01;99579.78;4993149;28;20500;-62
2022/10/22 10:02:19;;;;;;;6.50;4.93;;;;;;;9.02;66.13;99580.53;4975912;28;20039;-62
2022/10/22 10:04:56;;;;;;;5.13;4.03;;;;;;;8.89;66.59;99576.22;4993239;28;20494;-62
2022/10/22 10:07:29;;;;;;;8.75;4.55;;;;;;;8.89;67.29;99572.78;4991731;28;20076;-62
2022/10/22 10:09:55;;;;;;;4.40;3.67;;;;;;;8.94;65.55;99580.84;4993308;28;20447;-63
2022/10/22 10:12:51;;;;;;;7.93;4.05;;;;;;;8.95;65.10;99579.81;4975779;28;20057;-63
2022/10/22 10:15:23;;;;;;;4.90;3.53;;;;;;;8.92;65.85;99575.78;4991841;28;20049;-64
2022/10/22 10:18:05;;;;;;;6.07;3.40;;;;;;;9.00;64.66;99582.59;4993133;28;20439;-66
2022/10/22 10:20:44;;;;;;;5.25;3.53;;;;;;;8.91;65.97;99579.44;4991752;28;20362;-65
2022/10/22 10:23:34;;;;;;;5.00;3.83;;;;;;;8.96;65.90;99576.13;4975847;28;20132;-64
2022/10/22 10:26:18;;;;;;;6.05;3.97;;;;;;;9.03;64.60;99577.69;4992201;28;20104;-65
2022/10/22 10:28:56;;;;;;;6.55;3.88;;;;;;;9.10;65.08;99577.59;4992797;28;20057;-66
2022/10/22 10:31:35;;;;;;;6.78;4.47;;;;;;;8.99;65.27;99549.25;4993031;28;20061;-65
2022/10/22 10:34:13;;;;;;;10.27;4.93;;;;;;;9.07;65.46;99573.56;4991847;28;20493;-65
2022/10/22 10:36:48;;;;;;;6.03;3.42;;;;;;;9.15;64.44;99574.25;4992692;28;20104;-67
2022/10/22 10:39:51;;;;;;;4.57;3.42;;;;;;;9.17;64.96;99572.22;4990769;28;20046;-66
2022/10/22 10:42:25;;;;;;;7.95;4.22;;;;;;;9.21;65.13;99571.56;4991227;28;20137;-64
2022/10/22 10:45:26;;;;;;;4.78;3.30;;;;;;;9.08;63.61;99572.50;4991256;28;20092;-64
2022/10/22 10:48:03;;;;;;;6.72;3.17;;;;;;;9.07;64.45;99562.16;4993206;28;20512;-63
2022/10/22 10:51:01;;;;;;;4.20;3.40;;;;;;;9.02;64.65;99567.31;4958991;28;20057;-65
2022/10/22 10:53:30;;;;;;;3.47;3.10;;;;;;;8.95;64.57;99570.03;4990939;28;20050;-63
2022/10/22 10:56:07;;;;;;;4.07;3.40;;;;;;;8.90;65.28;99567.25;5007427;28;20074;-64
2022/10/22 10:58:36;;;;;;;4.00;3.35;;;;;;;8.86;65.06;99564.25;4992396;28;20073;-63
2022/10/22 11:01:11;;;;;;;6.05;3.65;;;;;;;8.85;66.46;99565.28;4990874;28;20137;-64
2022/10/22 11:03:58;;;;;;;6.03;4.28;;;;;;;8.86;66.89;99566.09;4991269;28;20066;-65
2022/10/22 11:06:25;;;;;;;10.15;5.78;;;;;;;8.92;66.47;99562.56;4992627;28;20050;-63
2022/10/22 11:08:56;;;;;;;6.90;4.53;;;;;;;8.94;66.49;99560.50;4990763;28;20042;-63
2022/10/22 11:11:33;;;;;;;4.93;3.63;;;;;;;8.94;65.84;99560.50;4975021;28;20046;-64
2022/10/22 11:14:04;;;;;;;7.38;3.60;;;;;;;8.89;65.93;99554.28;4990686;28;20046;-64
2022/10/22 11:16:42;;;;;;;4.72;3.50;;;;;;;8.89;66.49;99560.38;4991021;28;20081;-65
2022/10/22 11:19:23;;;;;;;4.38;3.42;;;;;;;8.85;66.43;99549.44;4992051;28;20034;-65
2022/10/22 11:21:54;;;;;;;9.57;3.97;;;;;;;8.87;66.17;99547.34;4961297;28;20077;-64
2022/10/22 11:24:25;;;;;;;7.00;4.10;;;;;;;8.89;66.73;99544.50;4992201;28;20073;-65
2022/10/22 11:27:20;;;;;;;6.82;3.22;;;;;;;8.90;67.06;99542.66;4990811;28;20073;-65
2022/10/22 11:29:50;;;;;;;5.45;3.85;;;;;;;8.84;66.61;99539.06;4974801;28;20408;-64
2022/10/22 11:32:20;;;;;;;4.88;3.47;;;;;;;8.88;66.59;99540.22;4992245;28;20054;-64
2022/10/22 11:34:49;;;;;;;5.82;3.78;;;;;;;8.91;66.84;99539.78;4990552;28;20041;-67
2022/10/22 11:37:15;;;;;;;4.47;3.47;;;;;;;8.90;66.85;99540.81;4974964;28;20097;-65
2022/10/22 11:39:54;;;;;;;4.93;3.50;;;;;;;8.85;66.94;99528.28;4995749;28;20070;-64
2022/10/22 11:42:34;;;;;;;5.20;3.42;;;;;;;8.82;66.30;99534.00;4962286;28;20400;-64
2022/10/22 11:45:03;;;;;;;5.40;3.35;;;;;;;8.69;66.66;99520.16;4995784;28;20056;-64
2022/10/22 11:47:35;;;;;;;6.25;3.40;;;;;;;8.77;66.72;99531.22;4994545;28;20061;-64
2022/10/22 11:50:45;;;;;;;5.07;3.20;;;;;;;8.75;67.31;99525.34;4962105;28;20145;-65
2022/10/22 11:53:13;;;;;;;7.53;4.15;;;;;;;8.75;67.03;99527.97;4996072;28;20526;-63
2022/10/22 11:55:44;;;;;;;8.75;5.10;;;;;;;8.76;66.93;99526.16;4995603;28;20054;-63